Airfield :
LOGIN :

Register | Disclaimer

   EN    FR    IT 

 










Legend :    VFR   Marginal VFR   IFR   Intensive IFR   Very Intensive IFR
Visi :
Ceiling :
>= 8 km
>= 3000ft
5 to 8 km
1000 to 3000 ft
1500m to 5 km
500 to 1000 ft
800 to 1500m
200 to 500 ft
< 800m
< 200 ft
Symbols :   Thunderstorms  Fog  Heavy snow  Heavy precipitations  Wind > 20 kt
SIGMETs :     Misc.  Thunderstorms  Icing  Turbulence  Mountain Waves  Volcanic Ashes







- Airport Elevation : 392 ft
- IATA code : CDG
- Download approach charts


LFPG - Paris-Aeroport Charles De Gaulle

CURRENT METAR :
  • 160900Z 20008KT 140V290 9999 SCT024 SCT033 18/12 Q1021 NOSIG

EXPIRED METARs :
  • 160830Z 21007KT 180V240 9999 SCT025 SCT033 17/11 Q1021 NOSIG
  • 160800Z 22008KT 180V260 9999 BKN022 SCT250 17/11 Q1021 NOSIG
  • 160730Z 22009KT 200V260 9999 BKN021 SCT250 17/11 Q1021 NOSIG
  • 160700Z 24007KT 200V270 9999 SCT019 SCT040 16/12 Q1021 NOSIG
  • 160630Z 22012KT 9999 FEW018 SCT050 15/11 Q1021 NOSIG

TAF TAF LFPG
Valid from the 16 at 06:00 until the 17 at 12:00 UTC


160500Z 1606/1712 21010KT 9999 FEW020 BKN040 TX25/1712Z TN13/1704Z
PROB30
TEMPO 1611/1613 FEW040TCU
BECMG 1621/1623 14003KT
ATIS : +33 1 48 62 10 92
No reported NOTAMs for that airfield.



MET'MAP, your aeronautical weather chart ! - Copyright ORBIFLY December 2007 - Disclaimer

ORBIFLY MET'MAP TEAM :

Programming & Development : Alexandra Zaïnal
Concept & Development : Baudouin d'Aumeries
Co-Development & Prog : Marc-Olivier Méhu
Technical & hardware support : Manuel Goepfert

Contact : metmap@orbifly.com




SOURCES & CREDITS :

   NOAA